sensor_id;sensor_type;location;lat;lon;timestamp;pressure;altitude;pressure_sealevel;temperature;humidity
48404;BME280;34202;52.536;6.042;2022-07-23T00:02:19;102042.02;;;15.77;80.45
48404;BME280;34202;52.536;6.042;2022-07-23T00:07:19;102036.73;;;15.75;80.54
48404;BME280;34202;52.536;6.042;2022-07-23T00:12:20;102035.48;;;15.73;80.75
48404;BME280;34202;52.536;6.042;2022-07-23T00:17:20;102037.92;;;15.71;80.87
48404;BME280;34202;52.536;6.042;2022-07-23T00:22:21;102033.52;;;15.67;80.87
48404;BME280;34202;52.536;6.042;2022-07-23T00:27:21;102029.29;;;15.63;80.92
48404;BME280;34202;52.536;6.042;2022-07-23T00:32:21;102030.49;;;15.59;80.92
48404;BME280;34202;52.536;6.042;2022-07-23T00:37:22;102024.69;;;15.55;80.89
48404;BME280;34202;52.536;6.042;2022-07-23T00:42:22;102027.64;;;15.49;81.11
48404;BME280;34202;52.536;6.042;2022-07-23T00:47:22;102029.02;;;15.43;81.11
48404;BME280;34202;52.536;6.042;2022-07-23T00:52:23;102026.54;;;15.39;81.25
48404;BME280;34202;52.536;6.042;2022-07-23T00:57:23;102020.70;;;15.31;81.31
48404;BME280;34202;52.536;6.042;2022-07-23T01:02:25;102014.33;;;15.22;81.40
48404;BME280;34202;52.536;6.042;2022-07-23T01:07:26;102010.61;;;15.17;81.58
48404;BME280;34202;52.536;6.042;2022-07-23T01:12:26;102004.98;;;15.13;81.83
48404;BME280;34202;52.536;6.042;2022-07-23T01:17:27;101999.69;;;15.09;82.09
48404;BME280;34202;52.536;6.042;2022-07-23T01:22:29;101997.19;;;15.02;82.18
48404;BME280;34202;52.536;6.042;2022-07-23T01:27:30;101997.33;;;14.97;82.30
48404;BME280;34202;52.536;6.042;2022-07-23T01:32:30;101992.38;;;14.91;82.43
48404;BME280;34202;52.536;6.042;2022-07-23T01:37:31;101991.47;;;14.86;82.49
48404;BME280;34202;52.536;6.042;2022-07-23T01:42:31;101989.34;;;14.82;82.57
48404;BME280;34202;52.536;6.042;2022-07-23T01:47:32;101982.84;;;14.78;82.77
48404;BME280;34202;52.536;6.042;2022-07-23T01:52:32;101977.71;;;14.75;82.54
48404;BME280;34202;52.536;6.042;2022-07-23T01:57:33;101977.69;;;14.72;82.69
48404;BME280;34202;52.536;6.042;2022-07-23T02:02:33;101980.48;;;14.68;82.69
48404;BME280;34202;52.536;6.042;2022-07-23T02:07:34;101974.84;;;14.64;82.80
48404;BME280;34202;52.536;6.042;2022-07-23T02:12:34;101971.14;;;14.61;82.83
48404;BME280;34202;52.536;6.042;2022-07-23T02:17:35;101974.41;;;14.57;82.73
48404;BME280;34202;52.536;6.042;2022-07-23T02:22:35;101982.24;;;14.54;82.97
48404;BME280;34202;52.536;6.042;2022-07-23T02:27:36;101981.17;;;14.52;83.10
48404;BME280;34202;52.536;6.042;2022-07-23T02:32:37;101978.35;;;14.50;83.17
48404;BME280;34202;52.536;6.042;2022-07-23T02:37:39;101973.97;;;14.49;83.79
48404;BME280;34202;52.536;6.042;2022-07-23T02:42:39;101968.19;;;14.48;84.05
48404;BME280;34202;52.536;6.042;2022-07-23T02:47:40;101965.73;;;14.48;83.98
48404;BME280;34202;52.536;6.042;2022-07-23T02:52:41;101967.82;;;14.47;83.93
48404;BME280;34202;52.536;6.042;2022-07-23T02:57:41;101978.15;;;14.46;84.16
48404;BME280;34202;52.536;6.042;2022-07-23T03:02:42;101979.52;;;14.43;84.13
48404;BME280;34202;52.536;6.042;2022-07-23T03:07:42;101976.71;;;14.41;84.20
48404;BME280;34202;52.536;6.042;2022-07-23T03:12:42;101976.88;;;14.39;84.23
48404;BME280;34202;52.536;6.042;2022-07-23T03:17:43;101976.84;;;14.36;83.92
48404;BME280;34202;52.536;6.042;2022-07-23T03:22:43;101992.39;;;14.33;83.42
48404;BME280;34202;52.536;6.042;2022-07-23T03:27:44;101989.73;;;14.29;83.64
48404;BME280;34202;52.536;6.042;2022-07-23T03:32:45;101988.47;;;14.26;83.78
48404;BME280;34202;52.536;6.042;2022-07-23T03:37:45;101985.46;;;14.22;83.81
48404;BME280;34202;52.536;6.042;2022-07-23T03:42:46;101993.66;;;14.19;83.88
48404;BME280;34202;52.536;6.042;2022-07-23T03:47:46;102000.61;;;14.14;83.89
48404;BME280;34202;52.536;6.042;2022-07-23T03:52:47;102002.66;;;14.09;83.52
48404;BME280;34202;52.536;6.042;2022-07-23T03:57:47;102003.48;;;14.05;83.58
48404;BME280;34202;52.536;6.042;2022-07-23T04:02:48;102005.19;;;14.01;84.05
48404;BME280;34202;52.536;6.042;2022-07-23T04:07:48;102001.31;;;13.98;84.22
48404;BME280;34202;52.536;6.042;2022-07-23T04:12:48;102001.46;;;13.96;84.46
48404;BME280;34202;52.536;6.042;2022-07-23T04:17:49;102002.49;;;13.95;84.71
48404;BME280;34202;52.536;6.042;2022-07-23T04:22:49;101993.02;;;13.93;84.93
48404;BME280;34202;52.536;6.042;2022-07-23T04:27:49;101989.71;;;13.94;85.28
48404;BME280;34202;52.536;6.042;2022-07-23T04:32:49;101990.79;;;13.96;85.54
48404;BME280;34202;52.536;6.042;2022-07-23T04:37:50;101992.89;;;13.96;85.68
48404;BME280;34202;52.536;6.042;2022-07-23T04:42:50;101992.20;;;13.97;85.60
48404;BME280;34202;52.536;6.042;2022-07-23T04:47:50;101986.94;;;13.97;85.70
48404;BME280;34202;52.536;6.042;2022-07-23T04:52:51;101987.29;;;13.97;85.72
48404;BME280;34202;52.536;6.042;2022-07-23T04:57:51;101993.27;;;13.98;85.87
48404;BME280;34202;52.536;6.042;2022-07-23T05:02:52;101989.08;;;13.99;86.01
48404;BME280;34202;52.536;6.042;2022-07-23T05:07:52;101984.02;;;14.01;85.81
48404;BME280;34202;52.536;6.042;2022-07-23T05:12:52;101991.55;;;14.02;86.01
48404;BME280;34202;52.536;6.042;2022-07-23T05:17:53;101998.91;;;14.03;85.59
48404;BME280;34202;52.536;6.042;2022-07-23T05:22:53;102009.96;;;14.05;85.53
48404;BME280;34202;52.536;6.042;2022-07-23T05:27:53;102009.48;;;14.09;86.02
48404;BME280;34202;52.536;6.042;2022-07-23T05:32:54;102014.06;;;14.12;86.11
48404;BME280;34202;52.536;6.042;2022-07-23T05:37:54;102019.71;;;14.16;86.59
48404;BME280;34202;52.536;6.042;2022-07-23T05:42:55;102023.43;;;14.20;87.03
48404;BME280;34202;52.536;6.042;2022-07-23T05:47:55;102023.66;;;14.25;87.33
48404;BME280;34202;52.536;6.042;2022-07-23T05:52:55;102025.81;;;14.31;87.87
48404;BME280;34202;52.536;6.042;2022-07-23T05:57:56;102035.00;;;14.38;88.28
48404;BME280;34202;52.536;6.042;2022-07-23T06:07:17;102047.82;;;14.58;89.28
48404;BME280;34202;52.536;6.042;2022-07-23T06:12:17;102044.77;;;14.67;89.36
48404;BME280;34202;52.536;6.042;2022-07-23T06:17:18;102041.75;;;14.82;89.90
48404;BME280;34202;52.536;6.042;2022-07-23T06:22:18;102038.88;;;14.97;89.95
48404;BME280;34202;52.536;6.042;2022-07-23T06:27:19;102038.98;;;15.13;90.26
48404;BME280;34202;52.536;6.042;2022-07-23T06:32:20;102041.57;;;15.31;90.36
48404;BME280;34202;52.536;6.042;2022-07-23T06:37:21;102048.34;;;15.49;90.24
48404;BME280;34202;52.536;6.042;2022-07-23T06:42:22;102052.84;;;15.69;90.26
48404;BME280;34202;52.536;6.042;2022-07-23T06:47:22;102057.70;;;15.90;89.97
48404;BME280;34202;52.536;6.042;2022-07-23T06:52:23;102059.17;;;16.11;89.61
48404;BME280;34202;52.536;6.042;2022-07-23T06:57:23;102064.15;;;16.32;88.94
48404;BME280;34202;52.536;6.042;2022-07-23T07:02:25;102071.59;;;16.57;88.83
48404;BME280;34202;52.536;6.042;2022-07-23T07:07:25;102073.73;;;16.83;88.26
48404;BME280;34202;52.536;6.042;2022-07-23T07:12:26;102081.48;;;17.08;87.01
48404;BME280;34202;52.536;6.042;2022-07-23T07:17:26;102085.33;;;17.27;85.69
48404;BME280;34202;52.536;6.042;2022-07-23T07:22:26;102073.86;;;17.49;85.21
48404;BME280;34202;52.536;6.042;2022-07-23T07:27:27;102073.99;;;17.63;83.51
48404;BME280;34202;52.536;6.042;2022-07-23T07:32:27;102071.14;;;17.75;83.46
48404;BME280;34202;52.536;6.042;2022-07-23T07:37:27;102069.14;;;17.99;83.47
48404;BME280;34202;52.536;6.042;2022-07-23T07:42:28;102070.92;;;18.29;83.41
48404;BME280;34202;52.536;6.042;2022-07-23T07:47:28;102077.73;;;18.40;81.23
48404;BME280;34202;52.536;6.042;2022-07-23T07:52:29;102085.09;;;18.47;80.44
48404;BME280;34202;52.536;6.042;2022-07-23T07:57:29;102085.50;;;18.63;80.07
48404;BME280;34202;52.536;6.042;2022-07-23T08:07:41;102103.94;;;19.02;77.64
48404;BME280;34202;52.536;6.042;2022-07-23T08:17:46;102116.70;;;19.16;75.81
48404;BME280;34202;52.536;6.042;2022-07-23T08:22:48;102121.17;;;19.29;76.17
48404;BME280;34202;52.536;6.042;2022-07-23T08:27:49;102125.76;;;19.49;76.13
48404;BME280;34202;52.536;6.042;2022-07-23T08:32:55;102126.67;;;19.63;74.89
48404;BME280;34202;52.536;6.042;2022-07-23T08:37:57;102131.00;;;19.70;74.21
48404;BME280;34202;52.536;6.042;2022-07-23T08:42:58;102128.70;;;19.72;73.60
48404;BME280;34202;52.536;6.042;2022-07-23T08:47:59;102128.30;;;19.94;73.69
48404;BME280;34202;52.536;6.042;2022-07-23T08:53:00;102129.17;;;20.23;73.24
48404;BME280;34202;52.536;6.042;2022-07-23T08:58:02;102129.33;;;20.49;71.93
48404;BME280;34202;52.536;6.042;2022-07-23T09:03:02;102131.21;;;20.68;70.72
48404;BME280;34202;52.536;6.042;2022-07-23T09:08:10;102132.11;;;20.68;69.85
48404;BME280;34202;52.536;6.042;2022-07-23T09:28:57;102126.95;;;20.71;68.45
48404;BME280;34202;52.536;6.042;2022-07-23T09:34:29;102130.51;;;21.03;68.83
48404;BME280;34202;52.536;6.042;2022-07-23T09:39:32;102129.68;;;21.20;67.74
48404;BME280;34202;52.536;6.042;2022-07-23T09:44:41;102130.74;;;21.20;66.79
48404;BME280;34202;52.536;6.042;2022-07-23T09:55:05;102124.89;;;21.79;67.85
48404;BME280;34202;52.536;6.042;2022-07-23T10:00:07;102128.40;;;22.17;66.93
48404;BME280;34202;52.536;6.042;2022-07-23T10:05:09;102129.22;;;22.38;65.74
48404;BME280;34202;52.536;6.042;2022-07-23T10:10:10;102131.20;;;22.60;65.23
48404;BME280;34202;52.536;6.042;2022-07-23T10:15:11;102138.05;;;22.39;61.69
48404;BME280;34202;52.536;6.042;2022-07-23T10:20:11;102134.80;;;22.08;62.24
48404;BME280;34202;52.536;6.042;2022-07-23T10:30:44;102132.25;;;22.52;63.60
48404;BME280;34202;52.536;6.042;2022-07-23T10:35:51;102137.46;;;22.73;62.83
48404;BME280;34202;52.536;6.042;2022-07-23T10:40:56;102136.20;;;22.82;62.28
48404;BME280;34202;52.536;6.042;2022-07-23T10:46:24;102134.48;;;22.86;62.37
48404;BME280;34202;52.536;6.042;2022-07-23T10:51:31;102132.81;;;23.19;62.66
48404;BME280;34202;52.536;6.042;2022-07-23T10:57:04;102135.69;;;23.38;62.63
48404;BME280;34202;52.536;6.042;2022-07-23T11:02:23;102134.98;;;23.58;61.98
48404;BME280;34202;52.536;6.042;2022-07-23T11:07:23;102131.44;;;23.84;61.39
48404;BME280;34202;52.536;6.042;2022-07-23T11:17:24;102130.73;;;23.70;58.84
48404;BME280;34202;52.536;6.042;2022-07-23T11:22:55;102124.45;;;23.80;60.49
48404;BME280;34202;52.536;6.042;2022-07-23T11:28:17;102128.67;;;24.06;60.45
48404;BME280;34202;52.536;6.042;2022-07-23T11:33:21;102127.96;;;24.30;60.22
48404;BME280;34202;52.536;6.042;2022-07-23T11:38:22;102128.52;;;24.41;58.86
48404;BME280;34202;52.536;6.042;2022-07-23T11:43:23;102125.86;;;24.46;57.94
48404;BME280;34202;52.536;6.042;2022-07-23T11:48:26;102123.54;;;24.18;57.01
48404;BME280;34202;52.536;6.042;2022-07-23T11:53:30;102122.33;;;24.34;57.97
48404;BME280;34202;52.536;6.042;2022-07-23T11:58:31;102125.88;;;24.52;58.02
48404;BME280;34202;52.536;6.042;2022-07-23T12:03:31;102121.96;;;24.64;57.17
48404;BME280;34202;52.536;6.042;2022-07-23T12:08:32;102121.94;;;24.81;57.44
48404;BME280;34202;52.536;6.042;2022-07-23T12:13:32;102123.30;;;25.05;56.91
48404;BME280;34202;52.536;6.042;2022-07-23T12:18:32;102119.50;;;25.23;56.10
48404;BME280;34202;52.536;6.042;2022-07-23T12:23:34;102119.08;;;25.40;54.94
48404;BME280;34202;52.536;6.042;2022-07-23T12:28:38;102117.66;;;25.55;53.98
48404;BME280;34202;52.536;6.042;2022-07-23T12:33:40;102118.53;;;25.70;53.72
48404;BME280;34202;52.536;6.042;2022-07-23T12:43:44;102114.88;;;25.87;52.03
48404;BME280;34202;52.536;6.042;2022-07-23T12:53:57;102110.17;;;26.23;51.97
48404;BME280;34202;52.536;6.042;2022-07-23T12:59:07;102111.65;;;26.44;51.13
48404;BME280;34202;52.536;6.042;2022-07-23T13:04:10;102103.77;;;26.54;50.21
48404;BME280;34202;52.536;6.042;2022-07-23T13:09:13;102105.48;;;26.69;50.65
48404;BME280;34202;52.536;6.042;2022-07-23T13:14:15;102102.40;;;26.84;49.69
48404;BME280;34202;52.536;6.042;2022-07-23T13:19:16;102103.64;;;26.84;48.20
48404;BME280;34202;52.536;6.042;2022-07-23T13:24:17;102102.15;;;26.63;48.78
48404;BME280;34202;52.536;6.042;2022-07-23T13:29:17;102102.81;;;26.87;48.75
48404;BME280;34202;52.536;6.042;2022-07-23T13:34:18;102107.40;;;27.05;48.46
48404;BME280;34202;52.536;6.042;2022-07-23T13:39:18;102102.66;;;27.19;48.83
48404;BME280;34202;52.536;6.042;2022-07-23T13:44:19;102095.48;;;27.49;49.37
48404;BME280;34202;52.536;6.042;2022-07-23T13:49:19;102091.45;;;27.55;47.53
48404;BME280;34202;52.536;6.042;2022-07-23T13:54:19;102091.45;;;27.27;46.80
48404;BME280;34202;52.536;6.042;2022-07-23T13:59:20;102091.46;;;27.31;47.45
48404;BME280;34202;52.536;6.042;2022-07-23T14:04:21;102092.47;;;27.53;47.86
48404;BME280;34202;52.536;6.042;2022-07-23T14:09:22;102086.71;;;27.77;47.73
48404;BME280;34202;52.536;6.042;2022-07-23T14:14:22;102086.70;;;27.93;47.07
48404;BME280;34202;52.536;6.042;2022-07-23T14:19:23;102086.42;;;27.68;44.29
48404;BME280;34202;52.536;6.042;2022-07-23T14:24:23;102086.95;;;27.36;45.05
48404;BME280;34202;52.536;6.042;2022-07-23T14:29:23;102083.05;;;27.48;45.66
48404;BME280;34202;52.536;6.042;2022-07-23T14:34:24;102087.59;;;27.66;45.43
48404;BME280;34202;52.536;6.042;2022-07-23T14:39:26;102091.91;;;27.69;45.15
48404;BME280;34202;52.536;6.042;2022-07-23T14:44:26;102092.59;;;27.74;45.26
48404;BME280;34202;52.536;6.042;2022-07-23T14:49:27;102094.86;;;27.71;43.99
48404;BME280;34202;52.536;6.042;2022-07-23T14:54:29;102095.89;;;26.98;42.74
48404;BME280;34202;52.536;6.042;2022-07-23T14:59:30;102094.30;;;26.59;43.74
48404;BME280;34202;52.536;6.042;2022-07-23T15:04:30;102087.73;;;26.53;44.71
48404;BME280;34202;52.536;6.042;2022-07-23T15:09:31;102089.80;;;26.60;44.29
48404;BME280;34202;52.536;6.042;2022-07-23T15:14:31;102081.83;;;26.40;44.61
48404;BME280;34202;52.536;6.042;2022-07-23T15:19:31;102084.61;;;26.46;45.40
48404;BME280;34202;52.536;6.042;2022-07-23T15:24:32;102082.06;;;26.47;45.40
48404;BME280;34202;52.536;6.042;2022-07-23T15:29:33;102082.97;;;26.38;44.93
48404;BME280;34202;52.536;6.042;2022-07-23T15:34:33;102073.09;;;26.27;45.01
48404;BME280;34202;52.536;6.042;2022-07-23T15:39:33;102072.27;;;26.11;44.80
48404;BME280;34202;52.536;6.042;2022-07-23T15:44:34;102065.07;;;25.75;44.76
48404;BME280;34202;52.536;6.042;2022-07-23T15:49:34;102065.33;;;25.49;45.43
48404;BME280;34202;52.536;6.042;2022-07-23T15:54:36;102061.80;;;25.57;45.67
48404;BME280;34202;52.536;6.042;2022-07-23T15:59:37;102055.82;;;25.60;45.62
48404;BME280;34202;52.536;6.042;2022-07-23T16:04:37;102060.34;;;25.62;45.58
48404;BME280;34202;52.536;6.042;2022-07-23T16:09:38;102061.08;;;25.52;45.30
48404;BME280;34202;52.536;6.042;2022-07-23T16:14:38;102054.84;;;25.48;46.12
48404;BME280;34202;52.536;6.042;2022-07-23T16:19:39;102051.27;;;25.52;46.19
48404;BME280;34202;52.536;6.042;2022-07-23T16:24:39;102052.55;;;25.42;45.70
48404;BME280;34202;52.536;6.042;2022-07-23T16:29:39;102052.27;;;25.30;45.73
48404;BME280;34202;52.536;6.042;2022-07-23T16:34:40;102049.73;;;24.89;45.39
48404;BME280;34202;52.536;6.042;2022-07-23T16:39:40;102053.65;;;24.52;45.90
48404;BME280;34202;52.536;6.042;2022-07-23T16:44:40;102051.38;;;24.11;46.60
48404;BME280;34202;52.536;6.042;2022-07-23T16:49:41;102049.02;;;24.00;47.61
48404;BME280;34202;52.536;6.042;2022-07-23T16:54:42;102045.27;;;23.83;47.60
48404;BME280;34202;52.536;6.042;2022-07-23T16:59:42;102038.81;;;23.65;47.96
48404;BME280;34202;52.536;6.042;2022-07-23T17:04:43;102038.27;;;23.54;48.34
48404;BME280;34202;52.536;6.042;2022-07-23T17:09:43;102041.13;;;23.40;48.91
48404;BME280;34202;52.536;6.042;2022-07-23T17:14:44;102039.52;;;23.34;49.35
48404;BME280;34202;52.536;6.042;2022-07-23T17:19:44;102035.54;;;23.37;49.63
48404;BME280;34202;52.536;6.042;2022-07-23T17:24:44;102038.19;;;23.31;49.66
48404;BME280;34202;52.536;6.042;2022-07-23T17:29:45;102036.20;;;23.19;49.99
48404;BME280;34202;52.536;6.042;2022-07-23T17:34:46;102033.74;;;23.04;50.30
48404;BME280;34202;52.536;6.042;2022-07-23T17:39:46;102031.73;;;22.93;50.37
48404;BME280;34202;52.536;6.042;2022-07-23T17:44:47;102033.30;;;22.79;50.79
48404;BME280;34202;52.536;6.042;2022-07-23T17:49:47;102031.67;;;22.67;51.15
48404;BME280;34202;52.536;6.042;2022-07-23T17:54:47;102033.41;;;22.61;51.41
48404;BME280;34202;52.536;6.042;2022-07-23T17:59:48;102034.94;;;22.56;51.53
48404;BME280;34202;52.536;6.042;2022-07-23T18:04:48;102039.04;;;22.56;51.60
48404;BME280;34202;52.536;6.042;2022-07-23T18:09:48;102039.73;;;22.49;51.71
48404;BME280;34202;52.536;6.042;2022-07-23T18:14:49;102043.87;;;22.47;51.75
48404;BME280;34202;52.536;6.042;2022-07-23T18:19:50;102047.69;;;22.43;51.90
48404;BME280;34202;52.536;6.042;2022-07-23T18:24:50;102043.14;;;22.41;52.07
48404;BME280;34202;52.536;6.042;2022-07-23T18:29:50;102046.19;;;22.39;52.68
48404;BME280;34202;52.536;6.042;2022-07-23T18:34:54;102043.16;;;22.32;53.52
48404;BME280;34202;52.536;6.042;2022-07-23T18:39:56;102039.20;;;22.26;53.87
48404;BME280;34202;52.536;6.042;2022-07-23T18:44:56;102038.77;;;22.22;54.27
48404;BME280;34202;52.536;6.042;2022-07-23T18:49:56;102032.75;;;22.20;54.55
48404;BME280;34202;52.536;6.042;2022-07-23T18:54:57;102033.83;;;22.20;54.94
48404;BME280;34202;52.536;6.042;2022-07-23T18:59:57;102033.31;;;22.18;55.13
48404;BME280;34202;52.536;6.042;2022-07-23T19:04:57;102034.11;;;22.15;55.24
48404;BME280;34202;52.536;6.042;2022-07-23T19:09:58;102034.48;;;22.07;55.25
48404;BME280;34202;52.536;6.042;2022-07-23T19:14:58;102033.89;;;22.01;55.51
48404;BME280;34202;52.536;6.042;2022-07-23T19:19:59;102029.96;;;21.95;55.56
48404;BME280;34202;52.536;6.042;2022-07-23T19:24:59;102032.64;;;21.85;55.72
48404;BME280;34202;52.536;6.042;2022-07-23T19:29:59;102035.09;;;21.78;55.95
48404;BME280;34202;52.536;6.042;2022-07-23T19:35:00;102037.86;;;21.72;56.15
48404;BME280;34202;52.536;6.042;2022-07-23T19:40:00;102041.88;;;21.68;56.61
48404;BME280;34202;52.536;6.042;2022-07-23T19:45:06;102042.58;;;21.59;56.94
48404;BME280;34202;52.536;6.042;2022-07-23T19:50:07;102044.82;;;21.53;57.09
48404;BME280;34202;52.536;6.042;2022-07-23T19:55:09;102046.90;;;21.46;57.38
48404;BME280;34202;52.536;6.042;2022-07-23T20:00:11;102042.94;;;21.39;57.72
48404;BME280;34202;52.536;6.042;2022-07-23T20:05:13;102049.44;;;21.32;57.67
48404;BME280;34202;52.536;6.042;2022-07-23T20:10:14;102049.05;;;21.24;57.77
48404;BME280;34202;52.536;6.042;2022-07-23T20:15:14;102051.10;;;21.20;58.09
48404;BME280;34202;52.536;6.042;2022-07-23T20:20:15;102050.13;;;21.15;58.26
48404;BME280;34202;52.536;6.042;2022-07-23T20:25:15;102051.65;;;21.08;58.20
48404;BME280;34202;52.536;6.042;2022-07-23T20:30:16;102050.17;;;21.02;58.59
48404;BME280;34202;52.536;6.042;2022-07-23T20:35:16;102050.45;;;20.96;58.76
48404;BME280;34202;52.536;6.042;2022-07-23T20:40:17;102050.73;;;20.90;58.82
48404;BME280;34202;52.536;6.042;2022-07-23T20:45:17;102055.27;;;20.84;59.09
48404;BME280;34202;52.536;6.042;2022-07-23T20:50:18;102054.50;;;20.76;59.03
48404;BME280;34202;52.536;6.042;2022-07-23T20:55:20;102053.94;;;20.68;59.05
48404;BME280;34202;52.536;6.042;2022-07-23T21:00:21;102053.34;;;20.59;59.29
48404;BME280;34202;52.536;6.042;2022-07-23T21:05:21;102050.77;;;20.53;59.51
48404;BME280;34202;52.536;6.042;2022-07-23T21:10:22;102045.58;;;20.47;59.90
48404;BME280;34202;52.536;6.042;2022-07-23T21:15:22;102044.96;;;20.40;60.03
48404;BME280;34202;52.536;6.042;2022-07-23T21:20:23;102044.36;;;20.34;60.21
48404;BME280;34202;52.536;6.042;2022-07-23T21:25:23;102044.80;;;20.27;60.49
48404;BME280;34202;52.536;6.042;2022-07-23T21:30:23;102039.41;;;20.21;60.67
48404;BME280;34202;52.536;6.042;2022-07-23T21:35:24;102045.17;;;20.14;60.69
48404;BME280;34202;52.536;6.042;2022-07-23T21:40:24;102045.09;;;20.07;60.80
48404;BME280;34202;52.536;6.042;2022-07-23T21:45:25;102044.13;;;20.00;61.12
48404;BME280;34202;52.536;6.042;2022-07-23T21:50:26;102042.26;;;19.94;61.16
48404;BME280;34202;52.536;6.042;2022-07-23T21:55:26;102037.05;;;19.87;61.44
48404;BME280;34202;52.536;6.042;2022-07-23T22:00:31;102030.98;;;19.77;61.56
48404;BME280;34202;52.536;6.042;2022-07-23T22:05:33;102031.23;;;19.70;61.83
48404;BME280;34202;52.536;6.042;2022-07-23T22:10:34;102036.42;;;19.64;62.06
48404;BME280;34202;52.536;6.042;2022-07-23T22:15:34;102032.42;;;19.58;62.31
48404;BME280;34202;52.536;6.042;2022-07-23T22:20:35;102028.45;;;19.51;62.59
48404;BME280;34202;52.536;6.042;2022-07-23T22:25:35;102033.48;;;19.44;62.81
48404;BME280;34202;52.536;6.042;2022-07-23T22:30:37;102036.00;;;19.38;63.25
48404;BME280;34202;52.536;6.042;2022-07-23T22:35:37;102031.66;;;19.32;63.64
48404;BME280;34202;52.536;6.042;2022-07-23T22:40:38;102027.83;;;19.27;63.83
48404;BME280;34202;52.536;6.042;2022-07-23T22:45:38;102026.31;;;19.21;64.11
48404;BME280;34202;52.536;6.042;2022-07-23T22:50:40;102022.48;;;19.16;64.59
48404;BME280;34202;52.536;6.042;2022-07-23T22:55:40;102022.88;;;19.11;64.57
48404;BME280;34202;52.536;6.042;2022-07-23T23:00:40;102023.45;;;19.06;64.75
48404;BME280;34202;52.536;6.042;2022-07-23T23:05:41;102022.80;;;19.01;65.01
48404;BME280;34202;52.536;6.042;2022-07-23T23:10:41;102027.42;;;18.97;65.18
48404;BME280;34202;52.536;6.042;2022-07-23T23:15:42;102026.76;;;18.92;65.52
48404;BME280;34202;52.536;6.042;2022-07-23T23:20:42;102028.39;;;18.89;65.49
48404;BME280;34202;52.536;6.042;2022-07-23T23:25:42;102030.86;;;18.86;65.65
48404;BME280;34202;52.536;6.042;2022-07-23T23:30:42;102029.48;;;18.82;65.94
48404;BME280;34202;52.536;6.042;2022-07-23T23:35:45;102020.33;;;18.78;66.15
48404;BME280;34202;52.536;6.042;2022-07-23T23:40:46;102016.50;;;18.73;66.39
48404;BME280;34202;52.536;6.042;2022-07-23T23:45:46;102011.24;;;18.68;66.43
48404;BME280;34202;52.536;6.042;2022-07-23T23:50:47;102005.66;;;18.63;66.78
48404;BME280;34202;52.536;6.042;2022-07-23T23:55:48;102001.98;;;18.58;67.04
